< < Back
Terminal Aerodrome Forecast


Current Version              Previous Versions:   1  2  3  4  5  6  7  8  9  

Terminal Aerodrome Forecast

778
FTUS42 KCAE 100520
TAFCAE
TAF
KCAE 100520Z 1006/1106 27012G18KT P6SM SCT100
     FM101100 27014G22KT P6SM SKC
     FM101500 27020G30KT P6SM SCT040=

Latest METAR

887
SAUS80 KWBC 102000
MTRCAE
METAR KCAE 101956Z 28017G28KT 10SM FEW070 04/M12 A3000 RMK AO2 PK WND
28028/1907 SLP160 T00441122


USA.gov is the U.S. government's official web portal to all federal, state and local government web resources and services.